Terminal Aerodrome Forecast
Issued by NWS

Current Version | Previous Version | Text Only | Print | Product List | Glossary Off
Versions: 1 2 3 4 5 6 7 8 9 10 11 12 13 14 15 16 17 18 19 20 21 22 23 24 25 26 27

803
FTUS41 KRLX 280208 AAD
TAFCKB
TAF AMD
KCKB 280208Z 2802/2824 20005KT P6SM BKN045
      TEMPO 2802/2804 3SM -TSRA OVC040CB
     FM280800 00000KT P6SM FEW100
     FM280900 00000KT 2SM BR FEW250
     FM281200 19004KT P6SM FEW045=

USA.gov is the U.S. government's official web portal to all federal, state and local government web resources and services.